Time;durP1;ratioP1;P1;durP2;ratioP2;P2;SDS_P1;SDS_P2;PMS_P1;PMS_P2;Temp;Humidity;BMP_temperature;BMP_pressure;BME280_temperature;BME280_humidity;BME280_pressure;Samples;Min_cycle;Max_cycle;Signal;HPM_P1;HPM_P2
2021/12/22 00:02:48;;;;;;;18.13;10.10;;;;;;;-1.09;95.64;99910.41;10501046;28;20034;-71
2021/12/22 00:07:49;;;;;;;19.58;10.93;;;;;;;-1.13;95.48;99898.53;10501066;28;20051;-70
2021/12/22 00:12:50;;;;;;;17.20;10.80;;;;;;;-0.15;95.63;100089.22;10499437;28;20037;-68
2021/12/22 00:17:51;;;;;;;16.88;10.00;;;;;;;-1.19;95.05;99936.28;10495359;28;20135;-68
2021/12/22 00:22:52;;;;;;;16.98;9.85;;;;;;;-0.39;95.57;100068.25;10450182;28;20120;-71
2021/12/22 00:27:55;;;;;;;16.88;10.35;;;;;;;-1.22;96.42;99917.41;10473307;28;20443;-70
2021/12/22 00:33:02;;;;;;;17.15;10.68;;;;;;;-1.22;95.54;99889.56;10499666;28;20041;-70
2021/12/22 00:38:04;;;;;;;18.25;10.93;;;;;;;-0.92;96.34;99930.13;10500113;28;20040;-69
2021/12/22 00:43:05;;;;;;;18.10;11.43;;;;;;;-0.77;95.80;99930.88;10499749;28;20040;-69
2021/12/22 00:48:09;;;;;;;15.95;9.88;;;;;;;-0.98;96.43;99868.81;10498847;28;20500;-69
2021/12/22 00:53:10;;;;;;;18.52;11.10;;;;;;;-0.10;96.07;99999.22;10498668;28;20090;-69
2021/12/22 00:58:11;;;;;;;15.70;10.50;;;;;;;0.28;95.69;100063.56;10499275;28;20127;-69
2021/12/22 01:03:12;;;;;;;17.20;10.38;;;;;;;0.18;95.80;100044.25;10497894;28;20127;-69
2021/12/22 01:08:13;;;;;;;15.13;9.80;;;;;;;0.13;94.85;100059.44;10497716;28;20051;-69
2021/12/22 01:13:14;;;;;;;19.10;11.38;;;;;;;0.04;95.60;100065.31;10497498;28;20048;-69
2021/12/22 01:18:26;;;;;;;16.85;10.48;;;;;;;-0.12;96.52;100011.56;10498649;28;20052;-69
2021/12/22 01:23:34;;;;;;;17.70;10.27;;;;;;;0.39;96.75;100047.97;10498270;28;20043;-69
2021/12/22 01:28:41;;;;;;;15.10;9.70;;;;;;;-0.81;96.01;99851.97;10496844;28;20051;-69
2021/12/22 01:33:42;;;;;;;16.35;10.45;;;;;;;-0.36;95.29;99919.28;10497295;28;20499;-69
2021/12/22 01:38:43;;;;;;;15.82;10.05;;;;;;;0.20;95.86;100011.84;10496481;28;20040;-69
2021/12/22 01:43:46;;;;;;;14.57;9.38;;;;;;;-0.14;95.57;99942.13;10497098;28;20040;-71
2021/12/22 01:49:11;;;;;;;15.57;9.80;;;;;;;0.20;96.09;99990.13;10496268;28;20063;-69
2021/12/22 01:54:30;;;;;;;15.00;9.10;;;;;;;0.19;94.80;99994.53;10496243;28;20067;-69
2021/12/22 01:59:31;;;;;;;15.70;9.55;;;;;;;0.18;95.04;99998.09;10497300;28;20103;-70
2021/12/22 02:04:32;;;;;;;17.00;9.15;;;;;;;0.14;95.50;99980.13;10495831;28;20068;-69
2021/12/22 02:09:54;;;;;;;20.58;10.57;;;;;;;0.55;95.70;100041.63;10496044;28;20555;-69
2021/12/22 02:14:54;;;;;;;17.02;11.07;;;;;;;0.32;95.31;100004.91;10495373;28;20044;-69
2021/12/22 02:19:55;;;;;;;14.70;9.63;;;;;;;0.42;95.64;100032.06;10494698;28;20044;-69
2021/12/22 02:25:02;;;;;;;18.40;10.43;;;;;;;0.64;95.69;100051.41;10494380;28;20040;-70
2021/12/22 02:30:06;;;;;;;15.50;9.98;;;;;;;0.49;95.44;100008.09;10495968;28;20044;-70
2021/12/22 02:35:07;;;;;;;;;;;;;;;0.71;95.85;100041.34;10496149;28;20037;-69
2021/12/22 02:40:13;;;;;;;16.45;9.38;;;;;;;-1.10;94.96;99762.78;10496036;28;19923;-69
2021/12/22 02:45:17;;;;;;;17.02;10.52;;;;;;;0.64;95.26;100051.41;10494713;28;20044;-69
2021/12/22 02:50:18;;;;;;;15.60;9.88;;;;;;;0.18;95.74;99968.50;10494678;28;20060;-69
2021/12/22 02:55:27;;;;;;;17.92;11.30;;;;;;;-1.02;95.14;99786.53;10476888;28;20412;-70
2021/12/22 03:05:29;;;;;;;21.23;11.35;;;;;;;0.73;96.25;100082.13;10492704;28;20155;-69
2021/12/22 03:10:31;;;;;;;19.05;11.27;;;;;;;0.53;95.84;100077.50;10488435;28;20094;-69
2021/12/22 03:15:32;;;;;;;17.55;11.43;;;;;;;0.05;96.38;100012.97;10462112;28;20052;-69
2021/12/22 03:20:33;;;;;;;20.92;11.93;;;;;;;-0.03;96.55;99990.00;10452845;28;20111;-70
2021/12/22 03:25:34;;;;;;;18.67;11.90;;;;;;;-0.22;96.16;99968.75;10453424;28;20045;-69
2021/12/22 03:30:35;;;;;;;22.15;12.60;;;;;;;0.60;96.07;100134.47;10472448;28;20036;-68
2021/12/22 03:35:38;;;;;;;23.88;13.75;;;;;;;0.23;95.72;100118.75;10500321;28;20173;-69
2021/12/22 03:40:39;;;;;;;27.52;14.23;;;;;;;-0.09;95.49;100099.25;10500551;28;20043;-69
2021/12/22 03:45:40;;;;;;;26.08;15.02;;;;;;;0.21;96.58;100161.63;10501979;28;20407;-69
2021/12/22 03:50:40;;;;;;;27.10;15.50;;;;;;;0.11;96.17;100194.53;10501348;28;20057;-69
2021/12/22 03:55:41;;;;;;;23.77;13.38;;;;;;;0.04;96.56;100195.91;10501399;28;20052;-70
2021/12/22 04:00:43;;;;;;;22.05;13.75;;;;;;;-0.17;96.76;100165.06;10477900;28;20041;-70
2021/12/22 04:05:46;;;;;;;21.42;12.20;;;;;;;-1.00;97.39;100068.84;10460274;28;20049;-71
2021/12/22 04:10:48;;;;;;;19.40;11.70;;;;;;;-0.59;98.03;100125.25;10459696;28;20120;-73
2021/12/22 04:15:49;;;;;;;20.83;11.27;;;;;;;-0.30;97.91;100172.03;10458839;28;20500;-74
2021/12/22 04:20:50;;;;;;;18.15;10.75;;;;;;;-0.29;97.65;100184.16;10458078;28;20048;-72
2021/12/22 04:25:51;;;;;;;18.48;11.35;;;;;;;-1.02;97.61;100060.25;10458095;28;20512;-70
2021/12/22 04:30:52;;;;;;;23.00;12.00;;;;;;;-0.37;98.29;100169.00;10459340;28;20049;-71
2021/12/22 04:35:53;;;;;;;20.90;11.95;;;;;;;-0.56;98.00;100140.69;10457656;28;20090;-71
2021/12/22 04:40:54;;;;;;;16.42;10.07;;;;;;;-0.39;97.94;100173.50;10457004;28;20119;-72
2021/12/22 04:45:55;;;;;;;16.15;9.88;;;;;;;0.05;98.27;100268.06;10457949;28;20041;-72
2021/12/22 04:50:56;;;;;;;17.13;9.25;;;;;;;0.11;98.13;100286.78;10464184;28;20056;-72
2021/12/22 04:55:57;;;;;;;14.23;8.57;;;;;;;0.13;98.41;100310.19;10466089;28;20044;-72
2021/12/22 05:00:58;;;;;;;13.82;8.80;;;;;;;-0.80;98.02;100150.16;10456994;28;20493;-72
2021/12/22 05:05:59;;;;;;;14.60;7.93;;;;;;;-0.04;98.71;100293.84;10438356;28;20066;-73
2021/12/22 05:11:00;;;;;;;12.18;7.18;;;;;;;-0.42;98.16;100274.63;10456658;28;20130;-72
2021/12/22 05:16:03;;;;;;;9.40;5.72;;;;;;;-1.08;98.04;100171.94;10456014;28;20043;-72
2021/12/22 05:21:04;;;;;;;9.13;5.27;;;;;;;-0.72;98.35;100257.41;10438697;28;20041;-73
2021/12/22 05:26:05;;;;;;;10.88;6.05;;;;;;;-1.15;97.47;100195.78;10456904;28;20048;-73
2021/12/22 05:31:06;;;;;;;7.63;4.50;;;;;;;-1.01;97.68;100241.03;10455419;28;20512;-73
2021/12/22 05:36:06;;;;;;;10.57;5.03;;;;;;;-1.33;97.25;100225.59;10456703;28;20037;-72
2021/12/22 05:41:07;;;;;;;8.43;5.03;;;;;;;-0.44;97.72;100376.53;10454573;28;20110;-72
2021/12/22 05:46:08;;;;;;;11.45;5.00;;;;;;;-0.39;98.38;100399.72;10456007;28;20063;-72
2021/12/22 05:51:10;;;;;;;7.88;4.70;;;;;;;-1.10;97.50;100275.50;10455822;28;20080;-73
2021/12/22 05:56:12;;;;;;;7.32;4.22;;;;;;;-0.42;97.36;100392.91;10455153;28;20404;-73
2021/12/22 06:01:13;;;;;;;6.45;3.17;;;;;;;-0.85;96.87;100317.34;10455635;28;20497;-73
2021/12/22 06:06:14;;;;;;;6.80;2.80;;;;;;;-0.56;96.40;100379.91;10437057;28;20141;-74
2021/12/22 06:11:15;;;;;;;4.20;2.17;;;;;;;-0.77;96.26;100353.41;10455711;28;20033;-73
2021/12/22 06:16:16;;;;;;;4.13;2.55;;;;;;;-0.24;95.91;100428.31;10455068;28;20109;-73
2021/12/22 06:21:16;;;;;;;4.78;2.40;;;;;;;-0.32;95.29;100414.06;10454860;28;20468;-73
2021/12/22 06:26:17;;;;;;;5.60;2.80;;;;;;;-0.51;95.05;100386.53;10453686;28;20051;-74
2021/12/22 06:31:18;;;;;;;3.20;2.20;;;;;;;-0.28;93.91;100407.72;10452908;28;20033;-74
2021/12/22 06:36:19;;;;;;;4.90;2.30;;;;;;;-0.27;92.94;100407.63;10454437;28;20090;-77
2021/12/22 06:41:20;;;;;;;3.53;2.25;;;;;;;0.16;91.48;100459.72;10453506;28;20096;-73
2021/12/22 06:46:21;;;;;;;8.57;2.13;;;;;;;0.23;88.91;100462.78;10454050;28;20051;-73
2021/12/22 06:51:22;;;;;;;3.28;1.73;;;;;;;-0.60;88.04;100311.44;10454267;28;20143;-73
2021/12/22 06:56:23;;;;;;;5.47;2.00;;;;;;;-0.83;86.28;100285.97;10453615;28;20041;-73
2021/12/22 07:01:24;;;;;;;4.35;1.67;;;;;;;0.13;84.25;100472.97;10436499;28;20041;-73
2021/12/22 07:06:25;;;;;;;3.13;1.58;;;;;;;-0.16;83.47;100443.47;10458246;28;20091;-73
2021/12/22 07:11:26;;;;;;;4.72;1.27;;;;;;;-0.38;81.47;100440.56;10461365;28;20131;-74
2021/12/22 07:16:27;;;;;;;3.10;1.45;;;;;;;-0.26;81.20;100479.78;10461253;28;20040;-74
2021/12/22 07:21:31;;;;;;;4.63;1.63;;;;;;;-0.17;79.89;100499.25;10461725;28;20052;-73
2021/12/22 07:26:31;;;;;;;1.88;0.77;;;;;;;-0.60;75.91;100481.03;10460969;28;20053;-73
2021/12/22 07:31:33;;;;;;;5.03;1.00;;;;;;;-0.43;71.33;100526.13;10461174;28;20049;-73
2021/12/22 07:36:42;;;;;;;3.83;1.20;;;;;;;-2.11;69.83;100279.78;10460019;28;20041;-72
2021/12/22 07:41:43;;;;;;;2.20;0.98;;;;;;;-0.74;70.86;100539.25;10460418;28;20174;-73
2021/12/22 07:46:43;;;;;;;3.35;1.02;;;;;;;-0.95;71.58;100493.56;10442488;28;20170;-73
2021/12/22 07:51:44;;;;;;;2.67;0.90;;;;;;;-0.79;72.10;100462.19;10460565;28;20496;-73
2021/12/22 07:56:45;;;;;;;5.18;1.00;;;;;;;-1.44;72.01;100321.81;10441371;28;20509;-73
2021/12/22 08:01:46;;;;;;;3.20;1.13;;;;;;;-0.17;73.48;100527.97;10459478;28;20068;-72
2021/12/22 08:06:46;;;;;;;3.55;1.17;;;;;;;-0.11;72.81;100530.22;10459151;28;20044;-73
2021/12/22 08:11:47;;;;;;;1.98;0.95;;;;;;;-0.25;73.19;100497.13;10459613;28;20209;-73
2021/12/22 08:16:49;;;;;;;1.92;1.00;;;;;;;0.28;72.08;100528.66;10457226;28;20408;-72
2021/12/22 08:21:49;;;;;;;1.77;0.68;;;;;;;0.36;67.19;100496.78;10458955;28;20048;-72
2021/12/22 08:26:51;;;;;;;3.40;0.80;;;;;;;0.66;63.78;100523.56;10458223;28;20408;-74
2021/12/22 08:31:52;;;;;;;1.75;0.60;;;;;;;0.78;63.83;100514.09;10458071;28;20064;-73
2021/12/22 08:42:13;;;;;;;4.03;1.02;;;;;;;0.45;65.33;100507.50;10458117;28;20572;-73
2021/12/22 08:47:15;;;;;;;4.75;0.73;;;;;;;0.19;64.33;100454.31;10457816;28;20067;-73
2021/12/22 08:52:16;;;;;;;2.35;0.88;;;;;;;-0.26;62.98;100370.13;10439604;28;20133;-73
2021/12/22 08:57:17;;;;;;;2.65;0.95;;;;;;;0.83;63.44;100516.38;10458288;28;20505;-73
2021/12/22 09:02:18;;;;;;;2.28;1.02;;;;;;;1.45;62.82;100529.63;10456686;28;20127;-72
2021/12/22 09:07:19;;;;;;;4.63;1.80;;;;;;;1.23;62.58;100409.88;10456406;28;20136;-72
2021/12/22 09:12:20;;;;;;;4.22;1.50;;;;;;;1.35;63.09;100525.97;10457490;28;20043;-72
2021/12/22 09:17:21;;;;;;;2.28;1.10;;;;;;;0.45;61.95;100530.19;10456803;28;20068;-74
2021/12/22 09:22:22;;;;;;;2.35;1.00;;;;;;;-1.65;62.84;100283.09;10455977;28;20528;-72
2021/12/22 09:27:23;;;;;;;2.53;1.27;;;;;;;-0.28;62.70;100551.28;10456016;28;20063;-73
2021/12/22 09:32:24;;;;;;;2.85;1.05;;;;;;;-1.55;62.45;100347.72;10456670;28;20037;-72
2021/12/22 09:37:24;;;;;;;1.65;0.85;;;;;;;-1.77;62.62;100376.75;10456037;28;20120;-72
2021/12/22 09:42:25;;;;;;;2.70;1.27;;;;;;;-1.95;63.78;100399.47;10456530;28;20036;-72
2021/12/22 09:47:30;;;;;;;3.00;1.63;;;;;;;-0.73;63.65;100567.00;10455439;28;20048;-72
2021/12/22 09:52:31;;;;;;;2.17;1.13;;;;;;;-0.65;61.63;100537.03;10455888;28;20053;-73
2021/12/22 09:57:32;;;;;;;2.85;1.15;;;;;;;-0.80;60.99;100557.03;10455797;28;20033;-73
2021/12/22 10:02:33;;;;;;;3.03;0.95;;;;;;;-1.55;62.13;100530.91;10455418;28;20041;-72
2021/12/22 10:07:38;;;;;;;3.65;1.48;;;;;;;-1.44;62.48;100518.09;10454676;28;20128;-71
2021/12/22 10:12:39;;;;;;;;;;;;;;;-0.61;62.40;100619.41;10454499;28;20118;-72
2021/12/22 10:17:44;;;;;;;3.55;1.80;;;;;;;-1.98;65.15;100469.94;10453956;28;19977;-73
2021/12/22 10:22:48;;;;;;;5.15;2.17;;;;;;;-1.48;66.16;100583.50;10436599;28;20036;-72
2021/12/22 10:28:06;;;;;;;5.47;2.33;;;;;;;-2.19;65.13;100584.69;10453035;28;20045;-73
2021/12/22 10:33:08;;;;;;;8.02;2.22;;;;;;;-2.76;64.32;100561.59;10453309;28;20147;-73
2021/12/22 10:38:11;;;;;;;2.80;1.63;;;;;;;-2.45;64.42;100632.91;10453957;28;20413;-72
2021/12/22 10:43:18;;;;;;;3.75;2.13;;;;;;;-2.26;64.56;100663.19;10461196;28;20040;-72
2021/12/22 10:53:44;;;;;;;3.97;2.08;;;;;;;-2.80;62.58;100640.69;10462266;28;20041;-71
2021/12/22 10:58:45;;;;;;;4.35;1.95;;;;;;;-2.78;62.99;100667.47;10460940;28;20037;-71
2021/12/22 11:03:50;;;;;;;3.95;1.55;;;;;;;-2.65;63.27;100669.47;10461994;28;20481;-72
2021/12/22 11:09:14;;;;;;;5.72;2.13;;;;;;;-4.21;63.49;100418.13;10461399;28;20044;-72
2021/12/22 11:14:22;;;;;;;4.03;1.45;;;;;;;-2.79;63.49;100668.34;10461011;28;20408;-74
2021/12/22 11:19:26;;;;;;;4.93;1.88;;;;;;;-3.83;63.67;100540.00;10460428;28;20087;-71
2021/12/22 11:24:30;;;;;;;4.63;2.25;;;;;;;-2.91;64.37;100736.56;10461248;28;20052;-71
2021/12/22 11:29:36;;;;;;;3.35;1.67;;;;;;;-3.07;64.73;100725.19;10461615;28;20041;-71
2021/12/22 11:34:38;;;;;;;5.35;2.00;;;;;;;-3.07;64.91;100759.00;10460680;28;20041;-71
2021/12/22 11:39:41;;;;;;;5.72;2.30;;;;;;;-3.04;65.05;100782.25;10460600;28;20091;-71
2021/12/22 11:44:47;;;;;;;4.78;2.65;;;;;;;-3.35;65.36;100751.59;10460849;28;20041;-72
2021/12/22 11:49:56;;;;;;;6.93;2.47;;;;;;;-3.22;65.60;100800.34;10460220;28;20564;-70
2021/12/22 11:55:14;;;;;;;4.00;1.77;;;;;;;-3.28;65.54;100831.81;10458213;28;20045;-70
2021/12/22 12:00:30;;;;;;;4.85;2.60;;;;;;;-3.81;65.52;100770.06;10459936;28;20037;-70
2021/12/22 12:05:31;;;;;;;4.03;2.13;;;;;;;-3.64;65.90;100839.44;10458402;28;20037;-70
2021/12/22 12:10:35;;;;;;;2.95;1.48;;;;;;;-4.04;66.54;100777.97;10459193;28;20389;-69
2021/12/22 12:16:03;;;;;;;;;;;;;;;-3.72;65.14;100857.91;10459091;28;20040;-69
2021/12/22 12:21:42;;;;;;;6.07;2.00;;;;;;;-3.87;65.34;100870.69;10459527;28;19913;-70
2021/12/22 12:26:43;;;;;;;6.63;1.73;;;;;;;-4.03;65.99;100884.31;10458850;28;20040;-70
2021/12/22 12:31:44;;;;;;;5.22;2.22;;;;;;;-4.22;66.40;100834.03;10448309;28;20404;-70
2021/12/22 12:36:45;;;;;;;6.18;2.00;;;;;;;-5.06;66.39;100722.41;10488763;28;20123;-74
2021/12/22 12:42:01;;;;;;;4.45;2.03;;;;;;;-4.59;65.97;100838.94;10495007;28;20040;-72
2021/12/22 12:47:19;;;;;;;6.00;1.95;;;;;;;-4.41;65.97;100901.38;10498602;28;20381;-70
2021/12/22 12:52:24;;;;;;;4.03;1.40;;;;;;;-4.91;64.95;100886.81;10500058;28;20500;-70
2021/12/22 12:57:26;;;;;;;4.28;1.50;;;;;;;-5.05;65.07;100918.41;10498944;28;20050;-69
2021/12/22 13:02:29;;;;;;;4.35;1.83;;;;;;;-5.41;64.96;100906.75;10496615;28;20044;-70
2021/12/22 13:07:31;;;;;;;4.60;1.30;;;;;;;-5.58;65.05;100934.03;10493662;28;20040;-69
2021/12/22 13:17:39;;;;;;;5.30;1.45;;;;;;;-5.66;65.25;100992.13;10481868;28;20047;-70
2021/12/22 13:22:40;;;;;;;4.32;1.83;;;;;;;-6.40;63.41;100916.00;10475982;28;20049;-72
2021/12/22 13:27:47;;;;;;;6.28;1.70;;;;;;;-6.00;63.47;101009.59;10480421;28;20048;-71
2021/12/22 13:32:56;;;;;;;4.72;2.10;;;;;;;-6.00;63.63;101019.09;10467026;28;20132;-73
2021/12/22 13:37:59;;;;;;;6.60;1.52;;;;;;;-6.09;62.68;101019.38;10474537;28;20039;-75
2021/12/22 13:42:59;;;;;;;5.13;2.13;;;;;;;-6.16;62.54;101029.06;10492343;28;20040;-69
2021/12/22 13:48:00;;;;;;;4.95;1.80;;;;;;;-6.34;62.62;101003.72;10488933;28;20032;-70
2021/12/22 13:53:01;;;;;;;2.70;1.40;;;;;;;-7.48;62.15;100831.25;10492340;28;20056;-72
2021/12/22 13:58:39;;;;;;;3.22;1.27;;;;;;;-6.06;63.50;101060.66;10465296;28;20131;-75
2021/12/22 14:03:40;;;;;;;3.38;1.20;;;;;;;-6.51;63.39;101020.56;10491816;28;20082;-71
2021/12/22 14:08:42;;;;;;;3.50;1.25;;;;;;;-6.92;62.28;100968.28;10488535;28;20131;-71
2021/12/22 14:13:42;;;;;;;4.72;1.50;;;;;;;-8.18;62.83;100789.28;10493453;28;20043;-72
2021/12/22 14:18:43;;;;;;;3.35;1.48;;;;;;;-6.90;63.16;101018.19;10453074;28;20394;-73
2021/12/22 14:23:44;;;;;;;3.78;1.65;;;;;;;-6.55;63.67;101080.13;10472439;28;20037;-72
2021/12/22 14:29:00;;;;;;;5.63;1.60;;;;;;;-6.91;63.87;101037.16;10492403;28;20036;-84
2021/12/22 14:34:06;;;;;;;8.52;1.80;;;;;;;-7.40;63.74;100962.69;10453516;28;20032;-74
2021/12/22 14:39:06;;;;;;;3.97;1.77;;;;;;;-6.69;63.72;101096.00;10435764;28;20079;-79
2021/12/22 14:44:36;;;;;;;4.45;1.52;;;;;;;-6.66;64.16;101104.53;10453691;28;20076;-72
2021/12/22 14:49:38;;;;;;;3.45;1.50;;;;;;;-7.41;64.26;100982.50;10443923;28;20052;-77
2021/12/22 14:54:39;;;;;;;4.03;1.75;;;;;;;-6.83;63.05;101098.94;10452842;28;20076;-72
2021/12/22 14:59:40;;;;;;;5.32;1.58;;;;;;;-6.77;63.98;101126.34;10452644;28;20068;-72
2021/12/22 15:04:40;;;;;;;2.42;1.27;;;;;;;-7.41;64.51;101033.25;10464683;28;20033;-71
2021/12/22 15:09:41;;;;;;;3.53;1.52;;;;;;;-7.14;64.86;101097.13;10453563;28;20072;-71
2021/12/22 15:14:43;;;;;;;2.75;1.38;;;;;;;-6.81;64.84;101154.00;10454715;28;20032;-70
2021/12/22 15:19:44;;;;;;;4.15;1.48;;;;;;;-7.73;64.48;101005.63;10462188;28;20057;-70
2021/12/22 15:24:45;;;;;;;4.82;1.40;;;;;;;-7.04;64.37;101133.91;10453257;28;20078;-73
2021/12/22 15:29:46;;;;;;;5.15;1.60;;;;;;;-8.00;65.00;100968.44;10460030;28;20040;-70
2021/12/22 15:34:47;;;;;;;3.58;1.50;;;;;;;-6.89;64.77;101166.25;10460428;28;20168;-71
2021/12/22 15:39:48;;;;;;;6.18;1.63;;;;;;;-7.95;65.39;100992.41;10459962;28;20220;-71
2021/12/22 15:44:49;;;;;;;4.10;1.77;;;;;;;-7.57;64.88;101074.03;10498680;28;20036;-71
2021/12/22 15:49:50;;;;;;;3.55;1.40;;;;;;;-7.16;65.56;101166.03;10498841;28;20051;-71
2021/12/22 15:54:52;;;;;;;4.40;1.30;;;;;;;-7.85;65.54;101045.44;10498754;28;20446;-71
2021/12/22 15:59:53;;;;;;;3.15;1.50;;;;;;;-7.47;65.87;101118.56;10498532;28;20036;-71
2021/12/22 16:04:54;;;;;;;3.60;1.33;;;;;;;-7.23;66.41;101164.47;10497460;28;20048;-71
2021/12/22 16:09:55;;;;;;;3.78;1.70;;;;;;;-7.04;66.01;101185.53;10495932;28;20037;-71
2021/12/22 16:14:55;;;;;;;5.03;1.50;;;;;;;-6.96;66.22;101185.38;10496311;28;20032;-71
2021/12/22 16:19:58;;;;;;;4.20;1.85;;;;;;;-7.08;66.06;101171.03;10497648;28;20060;-71
2021/12/22 16:24:59;;;;;;;5.15;1.73;;;;;;;-7.39;66.04;101114.94;10497902;28;20037;-73
2021/12/22 16:30:01;;;;;;;5.45;1.77;;;;;;;-7.04;65.55;101192.44;10498620;28;20493;-72
2021/12/22 16:35:03;;;;;;;4.30;1.65;;;;;;;-7.43;65.87;101167.50;10477261;28;20500;-72
2021/12/22 16:40:05;;;;;;;4.53;1.95;;;;;;;-7.82;67.00;101166.59;10490183;28;20071;-71
2021/12/22 16:45:07;;;;;;;5.10;1.70;;;;;;;-7.92;67.62;101181.44;10496960;28;20524;-73
2021/12/22 16:50:08;;;;;;;6.13;1.75;;;;;;;-7.82;68.33;101239.66;10494946;28;20585;-71
2021/12/22 16:55:09;;;;;;;8.20;2.20;;;;;;;-8.41;68.48;101146.28;10488623;28;20048;-72
2021/12/22 17:00:13;;;;;;;4.53;2.05;;;;;;;-8.15;68.70;101211.94;10484214;28;20041;-71
2021/12/22 17:05:14;;;;;;;5.97;1.97;;;;;;;-8.01;68.54;101238.34;10495678;28;20044;-71
2021/12/22 17:10:16;;;;;;;6.53;1.70;;;;;;;-8.16;69.45;101195.63;10495880;28;20693;-71
2021/12/22 17:15:17;;;;;;;4.28;1.70;;;;;;;-8.18;68.64;101179.34;10493028;28;20447;-72
2021/12/22 17:20:18;;;;;;;2.85;1.50;;;;;;;-8.81;68.76;101079.19;10495922;28;20158;-71
2021/12/22 17:25:21;;;;;;;3.88;1.80;;;;;;;-8.21;68.65;101212.06;10496654;28;20055;-71
2021/12/22 17:30:27;;;;;;;6.30;2.03;;;;;;;-8.28;69.37;101216.50;10496246;28;20038;-71
2021/12/22 17:35:29;;;;;;;3.50;1.60;;;;;;;-9.70;69.53;100960.63;10497065;28;20712;-76
2021/12/22 17:40:30;;;;;;;3.47;1.77;;;;;;;-7.97;70.07;101216.75;10496656;28;20408;-72
2021/12/22 17:45:31;;;;;;;4.75;1.75;;;;;;;-9.01;69.78;101052.06;10495786;28;20041;-71
2021/12/22 17:50:32;;;;;;;5.45;2.15;;;;;;;-8.01;69.97;101212.56;10494151;28;20048;-71
2021/12/22 17:55:35;;;;;;;4.45;2.10;;;;;;;-8.14;70.13;101201.59;10494327;28;20080;-71
2021/12/22 18:00:37;;;;;;;4.63;2.25;;;;;;;-7.88;70.30;101232.06;10494688;28;20043;-71
2021/12/22 18:05:41;;;;;;;6.38;2.65;;;;;;;-7.81;70.32;101227.63;10494163;28;20036;-71
2021/12/22 18:10:42;;;;;;;4.70;2.50;;;;;;;-7.75;70.42;101231.81;10488604;28;20036;-71
2021/12/22 18:15:43;;;;;;;5.40;2.50;;;;;;;-7.83;69.88;101212.19;10460944;28;20455;-71
2021/12/22 18:20:44;;;;;;;5.22;2.38;;;;;;;-7.73;70.66;101206.84;10437503;28;20033;-71
2021/12/22 18:25:45;;;;;;;4.43;2.20;;;;;;;-7.66;70.43;101218.72;10463722;28;20033;-74
2021/12/22 18:30:45;;;;;;;4.65;2.40;;;;;;;-7.67;70.76;101196.41;10495474;28;20447;-71
2021/12/22 18:35:47;;;;;;;7.53;1.98;;;;;;;-8.00;70.65;101130.88;10492186;28;20058;-71
2021/12/22 18:40:51;;;;;;;3.58;1.60;;;;;;;-7.59;70.62;101212.59;10469511;28;20097;-71
2021/12/22 18:45:55;;;;;;;5.25;2.33;;;;;;;-9.15;70.76;100956.25;10495963;28;20127;-71
2021/12/22 18:50:58;;;;;;;;;;;;;;;-7.60;71.02;101214.31;10495788;28;20052;-71
2021/12/22 18:56:00;;;;;;;5.68;2.42;;;;;;;-7.85;71.34;101187.31;10467263;28;19920;-71
2021/12/22 19:01:01;;;;;;;5.70;2.60;;;;;;;-8.08;71.21;101167.13;10455363;28;20033;-71
2021/12/22 19:06:01;;;;;;;5.90;2.42;;;;;;;-7.88;70.88;101224.31;10462818;28;20045;-71
2021/12/22 19:11:03;;;;;;;3.78;1.77;;;;;;;-8.01;71.26;101175.59;10461155;28;20037;-73
2021/12/22 19:16:04;;;;;;;7.03;2.28;;;;;;;-7.75;71.52;101229.22;10461838;28;20393;-71
2021/12/22 19:21:09;;;;;;;4.72;2.28;;;;;;;-7.82;71.05;101200.97;10460458;28;20041;-71
2021/12/22 19:26:10;;;;;;;6.78;2.65;;;;;;;-8.27;71.55;101133.97;10460868;28;20059;-71
2021/12/22 19:31:11;;;;;;;6.10;3.15;;;;;;;-7.86;71.57;101225.16;10461067;28;20044;-71
2021/12/22 19:36:12;;;;;;;8.32;2.67;;;;;;;-7.86;71.85;101225.16;10461159;28;20041;-71
2021/12/22 19:41:13;;;;;;;5.20;2.30;;;;;;;-8.71;71.91;101054.13;10460244;28;20049;-71
2021/12/22 19:46:15;;;;;;;7.43;2.40;;;;;;;-7.84;71.78;101225.97;10460018;28;20132;-71
2021/12/22 19:51:17;;;;;;;5.75;2.40;;;;;;;-8.27;71.30;101176.94;10471193;28;20143;-71
2021/12/22 19:56:17;;;;;;;4.32;1.65;;;;;;;-8.15;71.68;101183.59;10485344;28;20037;-73
2021/12/22 20:01:18;;;;;;;3.63;1.88;;;;;;;-8.20;71.49;101185.41;10460897;28;20120;-71
2021/12/22 20:06:19;;;;;;;7.18;2.00;;;;;;;-8.01;71.72;101215.13;10442132;28;20064;-71
2021/12/22 20:11:20;;;;;;;7.13;2.08;;;;;;;-8.40;71.34;101173.78;10459372;28;20036;-71
2021/12/22 20:16:21;;;;;;;5.57;2.08;;;;;;;-9.21;71.65;101033.56;10459540;28;20041;-72
2021/12/22 20:21:22;;;;;;;3.53;1.58;;;;;;;-8.26;72.01;101204.41;10441738;28;20128;-71
2021/12/22 20:26:23;;;;;;;4.15;1.73;;;;;;;-8.51;72.03;101196.28;10459724;28;20052;-71
2021/12/22 20:31:24;;;;;;;4.97;1.80;;;;;;;-8.40;72.13;101209.84;10458468;28;20413;-71
2021/12/22 20:36:25;;;;;;;6.07;2.88;;;;;;;-8.44;72.11;101203.03;10459367;28;20473;-71
2021/12/22 20:41:25;;;;;;;5.13;2.03;;;;;;;-8.32;72.68;101236.28;10458155;28;20041;-71
2021/12/22 20:46:26;;;;;;;4.22;2.25;;;;;;;-8.88;72.18;101119.66;10458228;28;20124;-71
2021/12/22 20:51:27;;;;;;;4.63;1.75;;;;;;;-9.07;71.63;101108.81;10458421;28;20468;-71
2021/12/22 20:56:28;;;;;;;4.35;1.77;;;;;;;-9.35;72.12;101050.94;10457856;28;20102;-71
2021/12/22 21:01:33;;;;;;;5.05;1.70;;;;;;;-8.37;71.74;101230.38;10471675;28;20036;-71
2021/12/22 21:06:33;;;;;;;4.32;1.65;;;;;;;-9.02;72.07;101108.75;10482053;28;20049;-71
2021/12/22 21:11:37;;;;;;;4.15;1.70;;;;;;;-9.01;72.14;101110.44;10497890;28;20043;-71
2021/12/22 21:16:39;;;;;;;4.53;1.97;;;;;;;-8.12;71.89;101263.44;10499008;28;20044;-71
2021/12/22 21:21:41;;;;;;;3.42;1.52;;;;;;;-9.71;72.08;100976.09;10497505;28;20071;-71
2021/12/22 21:26:42;;;;;;;4.78;1.70;;;;;;;-8.45;72.02;101211.66;10497016;28;20040;-71
2021/12/22 21:31:43;;;;;;;3.83;1.92;;;;;;;-9.03;72.06;101105.31;10497597;28;20044;-71
2021/12/22 21:36:43;;;;;;;2.95;1.40;;;;;;;-8.39;72.03;101190.09;10497270;28;20139;-71
2021/12/22 21:41:44;;;;;;;3.03;1.58;;;;;;;-8.28;72.35;101213.91;10498200;28;20048;-71
2021/12/22 21:46:45;;;;;;;5.53;2.25;;;;;;;-8.18;72.46;101217.16;10498152;28;20090;-72
2021/12/22 21:51:46;;;;;;;3.63;1.58;;;;;;;-8.34;71.77;101158.16;10477971;28;20412;-71
2021/12/22 21:56:47;;;;;;;3.10;1.73;;;;;;;-7.85;71.83;101238.88;10494936;28;20051;-71
2021/12/22 22:01:48;;;;;;;2.60;1.35;;;;;;;-8.89;71.91;101039.84;10495304;28;20504;-71
2021/12/22 22:06:49;;;;;;;3.83;1.48;;;;;;;-7.85;72.37;101205.34;10495001;28;20039;-71
2021/12/22 22:11:51;;;;;;;3.97;1.65;;;;;;;-7.77;71.44;101220.69;10495810;28;20550;-71
2021/12/22 22:16:52;;;;;;;3.50;1.63;;;;;;;-8.48;71.30;101129.25;10495107;28;20040;-71
2021/12/22 22:21:52;;;;;;;4.30;1.15;;;;;;;-8.23;71.83;101222.38;10495076;28;20041;-71
2021/12/22 22:26:53;;;;;;;6.00;1.88;;;;;;;-8.65;72.09;101193.94;10495194;28;20036;-71
2021/12/22 22:31:54;;;;;;;4.07;1.92;;;;;;;-8.46;72.60;101245.16;10493872;28;20058;-71
2021/12/22 22:36:55;;;;;;;5.10;1.77;;;;;;;-8.50;72.72;101244.34;10492810;28;20051;-71
2021/12/22 22:41:55;;;;;;;3.38;1.55;;;;;;;-9.28;73.34;101115.13;10494050;28;20040;-71
2021/12/22 22:46:56;;;;;;;4.90;1.50;;;;;;;-9.92;72.93;101008.09;10493251;28;20643;-71
2021/12/22 22:51:57;;;;;;;6.43;2.05;;;;;;;-8.64;72.59;101248.91;10435347;28;1703328;-71
2021/12/22 22:56:58;;;;;;;3.08;1.52;;;;;;;-9.74;72.98;101048.13;10494772;28;20082;-72
2021/12/22 23:01:59;;;;;;;5.70;2.00;;;;;;;-8.54;72.75;101227.25;10495898;28;20066;-71
2021/12/22 23:06:59;;;;;;;7.72;2.03;;;;;;;-9.60;73.05;101028.19;10494707;28;20093;-71
2021/12/22 23:12:00;;;;;;;3.00;1.20;;;;;;;-9.35;71.97;101092.97;10495846;28;20102;-70
2021/12/22 23:17:03;;;;;;;3.95;1.70;;;;;;;-8.86;73.17;101238.91;10494907;28;20074;-71
2021/12/22 23:22:04;;;;;;;5.55;2.05;;;;;;;-9.39;73.84;101208.78;10495614;28;20090;-71
2021/12/22 23:27:06;;;;;;;4.38;1.92;;;;;;;-9.51;73.77;101220.09;10494400;28;20094;-71
2021/12/22 23:32:07;;;;;;;4.72;1.60;;;;;;;-9.44;73.47;101232.88;10494230;28;20424;-71